sensor_id;sensor_type;location;lat;lon;timestamp;pressure;altitude;pressure_sealevel;temperature;humidity
57847;BME280;43675;50.030;21.952;2023-02-10T00:01:26;100451.86;;;-3.87;63.57
57847;BME280;43675;50.030;21.952;2023-02-10T00:03:53;100452.17;;;-4.09;63.86
57847;BME280;43675;50.030;21.952;2023-02-10T00:06:21;100452.81;;;-4.25;64.16
57847;BME280;43675;50.030;21.952;2023-02-10T00:08:57;100456.92;;;-4.37;64.23
57847;BME280;43675;50.030;21.952;2023-02-10T00:11:25;100462.76;;;-4.45;64.48
57847;BME280;43675;50.030;21.952;2023-02-10T00:13:52;100462.38;;;-4.34;64.39
57847;BME280;43675;50.030;21.952;2023-02-10T00:16:19;100460.42;;;-4.23;64.17
57847;BME280;43675;50.030;21.952;2023-02-10T00:18:45;100457.97;;;-4.17;63.93
57847;BME280;43675;50.030;21.952;2023-02-10T00:21:15;100459.23;;;-4.11;63.91
57847;BME280;43675;50.030;21.952;2023-02-10T00:23:42;100456.31;;;-4.08;63.83
57847;BME280;43675;50.030;21.952;2023-02-10T00:26:11;100457.55;;;-4.05;63.82
57847;BME280;43675;50.030;21.952;2023-02-10T00:28:38;100457.55;;;-4.02;63.94
57847;BME280;43675;50.030;21.952;2023-02-10T00:31:06;100451.51;;;-4.00;63.83
57847;BME280;43675;50.030;21.952;2023-02-10T00:33:33;100456.60;;;-3.97;63.73
57847;BME280;43675;50.030;21.952;2023-02-10T00:36:03;100461.38;;;-3.95;63.71
57847;BME280;43675;50.030;21.952;2023-02-10T00:38:30;100463.56;;;-3.93;63.74
57847;BME280;43675;50.030;21.952;2023-02-10T00:41:04;100469.91;;;-4.04;63.68
57847;BME280;43675;50.030;21.952;2023-02-10T00:43:31;100470.08;;;-4.24;64.09
57847;BME280;43675;50.030;21.952;2023-02-10T00:45:57;100468.27;;;-4.41;64.41
57847;BME280;43675;50.030;21.952;2023-02-10T00:48:24;100463.85;;;-4.49;64.59
57847;BME280;43675;50.030;21.952;2023-02-10T00:50:50;100462.24;;;-4.59;64.68
57847;BME280;43675;50.030;21.952;2023-02-10T00:53:17;100454.17;;;-4.65;64.91
57847;BME280;43675;50.030;21.952;2023-02-10T00:55:44;100451.09;;;-4.70;65.02
57847;BME280;43675;50.030;21.952;2023-02-10T00:58:10;100450.98;;;-4.75;64.99
57847;BME280;43675;50.030;21.952;2023-02-10T01:00:37;100449.59;;;-4.79;65.14
57847;BME280;43675;50.030;21.952;2023-02-10T01:03:03;100450.04;;;-4.81;65.20
57847;BME280;43675;50.030;21.952;2023-02-10T01:05:30;100444.73;;;-4.83;65.31
57847;BME280;43675;50.030;21.952;2023-02-10T01:07:57;100444.74;;;-4.83;65.41
57847;BME280;43675;50.030;21.952;2023-02-10T01:10:24;100442.45;;;-4.83;65.49
57847;BME280;43675;50.030;21.952;2023-02-10T01:12:50;100438.66;;;-4.80;65.48
57847;BME280;43675;50.030;21.952;2023-02-10T01:15:17;100438.31;;;-4.77;65.54
57847;BME280;43675;50.030;21.952;2023-02-10T01:17:44;100436.62;;;-4.71;65.65
57847;BME280;43675;50.030;21.952;2023-02-10T01:20:11;100429.80;;;-4.64;65.61
57847;BME280;43675;50.030;21.952;2023-02-10T01:22:38;100432.22;;;-4.56;65.57
57847;BME280;43675;50.030;21.952;2023-02-10T01:25:05;100427.52;;;-4.50;65.47
57847;BME280;43675;50.030;21.952;2023-02-10T01:27:32;100428.77;;;-4.43;65.42
57847;BME280;43675;50.030;21.952;2023-02-10T01:29:58;100431.94;;;-4.37;65.35
57847;BME280;43675;50.030;21.952;2023-02-10T01:32:25;100437.14;;;-4.33;65.34
57847;BME280;43675;50.030;21.952;2023-02-10T01:34:51;100437.48;;;-4.29;65.14
57847;BME280;43675;50.030;21.952;2023-02-10T01:37:18;100435.21;;;-4.26;65.27
57847;BME280;43675;50.030;21.952;2023-02-10T01:39:44;100433.73;;;-4.24;65.13
57847;BME280;43675;50.030;21.952;2023-02-10T01:42:15;100432.85;;;-4.24;65.15
57847;BME280;43675;50.030;21.952;2023-02-10T01:47:09;100432.45;;;-4.23;65.07
57847;BME280;43675;50.030;21.952;2023-02-10T01:49:41;100426.05;;;-4.24;64.96
57847;BME280;43675;50.030;21.952;2023-02-10T01:52:11;100422.45;;;-4.25;65.09
57847;BME280;43675;50.030;21.952;2023-02-10T01:54:45;100419.95;;;-4.28;64.97
57847;BME280;43675;50.030;21.952;2023-02-10T01:57:13;100415.27;;;-4.29;64.98
57847;BME280;43675;50.030;21.952;2023-02-10T01:59:41;100414.55;;;-4.29;64.91
57847;BME280;43675;50.030;21.952;2023-02-10T02:02:10;100411.61;;;-4.33;65.04
57847;BME280;43675;50.030;21.952;2023-02-10T02:04:46;100411.32;;;-4.37;64.99
57847;BME280;43675;50.030;21.952;2023-02-10T02:07:15;100408.70;;;-4.40;65.07
57847;BME280;43675;50.030;21.952;2023-02-10T02:09:42;100408.52;;;-4.44;65.09
57847;BME280;43675;50.030;21.952;2023-02-10T02:17:37;100404.66;;;-4.60;65.27
57847;BME280;43675;50.030;21.952;2023-02-10T02:28:46;100402.38;;;-4.88;65.37
57847;BME280;43675;50.030;21.952;2023-02-10T02:34:03;100401.14;;;-5.02;65.44
57847;BME280;43675;50.030;21.952;2023-02-10T02:36:38;100398.53;;;-5.09;65.61
57847;BME280;43675;50.030;21.952;2023-02-10T02:39:07;100389.15;;;-5.17;65.70
57847;BME280;43675;50.030;21.952;2023-02-10T02:41:34;100389.12;;;-5.23;65.89
57847;BME280;43675;50.030;21.952;2023-02-10T02:44:02;100385.17;;;-5.29;65.97
57847;BME280;43675;50.030;21.952;2023-02-10T02:49:31;100384.33;;;-5.36;66.11
57847;BME280;43675;50.030;21.952;2023-02-10T02:52:09;100385.42;;;-5.41;66.20
57847;BME280;43675;50.030;21.952;2023-02-10T02:54:53;100385.19;;;-5.43;66.18
57847;BME280;43675;50.030;21.952;2023-02-10T02:57:46;100382.48;;;-5.45;66.45
57847;BME280;43675;50.030;21.952;2023-02-10T03:00:20;100379.40;;;-5.46;66.34
57847;BME280;43675;50.030;21.952;2023-02-10T03:02:49;100376.77;;;-5.46;66.20
57847;BME280;43675;50.030;21.952;2023-02-10T03:05:22;100375.70;;;-5.45;66.53
57847;BME280;43675;50.030;21.952;2023-02-10T03:07:49;100378.41;;;-5.40;66.51
57847;BME280;43675;50.030;21.952;2023-02-10T03:10:16;100380.80;;;-5.43;66.50
57847;BME280;43675;50.030;21.952;2023-02-10T03:12:43;100379.82;;;-5.48;66.69
57847;BME280;43675;50.030;21.952;2023-02-10T03:15:09;100375.09;;;-5.51;66.74
57847;BME280;43675;50.030;21.952;2023-02-10T03:17:36;100375.35;;;-5.53;66.85
57847;BME280;43675;50.030;21.952;2023-02-10T03:20:03;100370.20;;;-5.54;67.01
57847;BME280;43675;50.030;21.952;2023-02-10T03:22:29;100376.61;;;-5.54;67.05
57847;BME280;43675;50.030;21.952;2023-02-10T03:24:56;100377.31;;;-5.54;67.07
57847;BME280;43675;50.030;21.952;2023-02-10T03:27:23;100376.44;;;-5.53;67.20
57847;BME280;43675;50.030;21.952;2023-02-10T03:29:49;100383.22;;;-5.53;67.04
57847;BME280;43675;50.030;21.952;2023-02-10T03:32:16;100385.49;;;-5.53;67.04
57847;BME280;43675;50.030;21.952;2023-02-10T03:34:43;100385.31;;;-5.57;67.14
57847;BME280;43675;50.030;21.952;2023-02-10T03:37:10;100384.52;;;-5.58;67.21
57847;BME280;43675;50.030;21.952;2023-02-10T03:39:37;100390.65;;;-5.59;67.22
57847;BME280;43675;50.030;21.952;2023-02-10T03:42:04;100384.77;;;-5.60;67.28
57847;BME280;43675;50.030;21.952;2023-02-10T03:44:31;100386.67;;;-5.59;67.28
57847;BME280;43675;50.030;21.952;2023-02-10T03:46:57;100386.80;;;-5.59;67.28
57847;BME280;43675;50.030;21.952;2023-02-10T03:49:24;100383.98;;;-5.58;67.42
57847;BME280;43675;50.030;21.952;2023-02-10T03:51:50;100383.95;;;-5.58;67.34
57847;BME280;43675;50.030;21.952;2023-02-10T03:54:17;100389.14;;;-5.57;67.26
57847;BME280;43675;50.030;21.952;2023-02-10T03:56:44;100394.16;;;-5.56;67.37
57847;BME280;43675;50.030;21.952;2023-02-10T03:59:10;100392.75;;;-5.56;67.48
57847;BME280;43675;50.030;21.952;2023-02-10T04:01:37;100394.98;;;-5.55;67.58
57847;BME280;43675;50.030;21.952;2023-02-10T04:04:03;100397.92;;;-5.54;67.49
57847;BME280;43675;50.030;21.952;2023-02-10T04:06:30;100400.92;;;-5.55;67.50
57847;BME280;43675;50.030;21.952;2023-02-10T04:08:56;100405.64;;;-5.55;67.44
57847;BME280;43675;50.030;21.952;2023-02-10T04:11:23;100407.27;;;-5.56;67.42
57847;BME280;43675;50.030;21.952;2023-02-10T04:13:50;100408.70;;;-5.57;67.49
57847;BME280;43675;50.030;21.952;2023-02-10T04:16:16;100412.09;;;-5.59;67.44
57847;BME280;43675;50.030;21.952;2023-02-10T04:18:43;100414.08;;;-5.60;67.46
57847;BME280;43675;50.030;21.952;2023-02-10T04:21:11;100412.52;;;-5.61;67.61
57847;BME280;43675;50.030;21.952;2023-02-10T04:23:38;100410.14;;;-5.62;67.53
57847;BME280;43675;50.030;21.952;2023-02-10T04:26:05;100412.98;;;-5.63;67.53
57847;BME280;43675;50.030;21.952;2023-02-10T04:28:31;100418.25;;;-5.64;67.50
57847;BME280;43675;50.030;21.952;2023-02-10T04:30:59;100419.30;;;-5.64;67.50
57847;BME280;43675;50.030;21.952;2023-02-10T04:33:27;100422.36;;;-5.62;67.55
57847;BME280;43675;50.030;21.952;2023-02-10T04:35:54;100427.29;;;-5.63;67.68
57847;BME280;43675;50.030;21.952;2023-02-10T04:38:21;100427.34;;;-5.64;67.72
57847;BME280;43675;50.030;21.952;2023-02-10T04:40:48;100431.48;;;-5.64;67.71
57847;BME280;43675;50.030;21.952;2023-02-10T04:43:15;100434.55;;;-5.62;67.75
57847;BME280;43675;50.030;21.952;2023-02-10T04:45:42;100432.05;;;-5.61;67.71
57847;BME280;43675;50.030;21.952;2023-02-10T04:48:09;100431.13;;;-5.60;67.65
57847;BME280;43675;50.030;21.952;2023-02-10T04:50:36;100429.70;;;-5.59;67.72
57847;BME280;43675;50.030;21.952;2023-02-10T04:53:04;100426.51;;;-5.57;67.77
57847;BME280;43675;50.030;21.952;2023-02-10T04:55:31;100419.02;;;-5.54;67.76
57847;BME280;43675;50.030;21.952;2023-02-10T04:57:57;100414.91;;;-5.49;67.86
57847;BME280;43675;50.030;21.952;2023-02-10T05:00:24;100413.81;;;-5.47;67.77
57847;BME280;43675;50.030;21.952;2023-02-10T05:02:51;100413.72;;;-5.45;67.81
57847;BME280;43675;50.030;21.952;2023-02-10T05:05:18;100417.53;;;-5.41;67.75
57847;BME280;43675;50.030;21.952;2023-02-10T05:07:45;100416.83;;;-5.37;67.78
57847;BME280;43675;50.030;21.952;2023-02-10T05:10:11;100415.95;;;-5.37;67.82
57847;BME280;43675;50.030;21.952;2023-02-10T05:12:38;100416.56;;;-5.36;67.79
57847;BME280;43675;50.030;21.952;2023-02-10T05:15:04;100407.60;;;-5.34;67.78
57847;BME280;43675;50.030;21.952;2023-02-10T05:17:31;100413.68;;;-5.30;67.83
57847;BME280;43675;50.030;21.952;2023-02-10T05:19:58;100415.30;;;-5.27;67.66
57847;BME280;43675;50.030;21.952;2023-02-10T05:22:24;100413.88;;;-5.23;67.62
57847;BME280;43675;50.030;21.952;2023-02-10T05:24:51;100413.84;;;-5.19;67.53
57847;BME280;43675;50.030;21.952;2023-02-10T05:27:17;100415.42;;;-5.12;67.62
57847;BME280;43675;50.030;21.952;2023-02-10T05:29:44;100424.38;;;-5.05;67.79
57847;BME280;43675;50.030;21.952;2023-02-10T05:32:11;100419.72;;;-5.00;67.49
57847;BME280;43675;50.030;21.952;2023-02-10T05:34:37;100421.88;;;-4.94;67.46
57847;BME280;43675;50.030;21.952;2023-02-10T05:37:04;100425.10;;;-4.85;67.43
57847;BME280;43675;50.030;21.952;2023-02-10T05:39:30;100427.91;;;-4.78;67.32
57847;BME280;43675;50.030;21.952;2023-02-10T05:41:58;100427.02;;;-4.71;67.17
57847;BME280;43675;50.030;21.952;2023-02-10T05:44:28;100430.58;;;-4.65;67.17
57847;BME280;43675;50.030;21.952;2023-02-10T05:46:55;100427.12;;;-4.59;66.97
57847;BME280;43675;50.030;21.952;2023-02-10T05:49:21;100428.66;;;-4.55;66.88
57847;BME280;43675;50.030;21.952;2023-02-10T05:51:48;100432.79;;;-4.54;66.82
57847;BME280;43675;50.030;21.952;2023-02-10T05:54:15;100427.95;;;-4.55;66.67
57847;BME280;43675;50.030;21.952;2023-02-10T05:56:42;100423.08;;;-4.58;66.61
57847;BME280;43675;50.030;21.952;2023-02-10T05:59:11;100424.75;;;-4.60;66.64
57847;BME280;43675;50.030;21.952;2023-02-10T06:01:38;100425.57;;;-4.63;66.54
57847;BME280;43675;50.030;21.952;2023-02-10T06:04:04;100427.34;;;-4.63;66.59
57847;BME280;43675;50.030;21.952;2023-02-10T06:06:31;100427.38;;;-4.64;66.47
57847;BME280;43675;50.030;21.952;2023-02-10T06:08:57;100423.86;;;-4.63;66.61
57847;BME280;43675;50.030;21.952;2023-02-10T06:11:24;100419.39;;;-4.62;66.56
57847;BME280;43675;50.030;21.952;2023-02-10T06:13:50;100419.90;;;-4.58;66.52
57847;BME280;43675;50.030;21.952;2023-02-10T06:16:17;100418.77;;;-4.53;66.45
57847;BME280;43675;50.030;21.952;2023-02-10T06:18:43;100421.00;;;-4.49;66.30
57847;BME280;43675;50.030;21.952;2023-02-10T06:21:10;100418.04;;;-4.45;66.25
57847;BME280;43675;50.030;21.952;2023-02-10T06:23:37;100418.38;;;-4.42;66.11
57847;BME280;43675;50.030;21.952;2023-02-10T06:26:04;100415.02;;;-4.41;66.03
57847;BME280;43675;50.030;21.952;2023-02-10T06:28:31;100413.56;;;-4.43;65.97
57847;BME280;43675;50.030;21.952;2023-02-10T06:30:57;100413.33;;;-4.46;66.00
57847;BME280;43675;50.030;21.952;2023-02-10T06:33:24;100414.81;;;-4.47;65.94
57847;BME280;43675;50.030;21.952;2023-02-10T06:35:51;100410.28;;;-4.50;65.89
57847;BME280;43675;50.030;21.952;2023-02-10T06:38:17;100410.55;;;-4.53;65.82
57847;BME280;43675;50.030;21.952;2023-02-10T06:40:44;100412.13;;;-4.53;65.81
57847;BME280;43675;50.030;21.952;2023-02-10T06:43:11;100407.62;;;-4.53;65.85
57847;BME280;43675;50.030;21.952;2023-02-10T06:45:37;100409.74;;;-4.50;65.86
57847;BME280;43675;50.030;21.952;2023-02-10T06:48:04;100404.23;;;-4.45;65.85
57847;BME280;43675;50.030;21.952;2023-02-10T06:50:31;100405.88;;;-4.43;65.77
57847;BME280;43675;50.030;21.952;2023-02-10T06:52:57;100410.10;;;-4.41;65.86
57847;BME280;43675;50.030;21.952;2023-02-10T06:55:24;100414.54;;;-4.39;65.62
57847;BME280;43675;50.030;21.952;2023-02-10T06:57:50;100419.33;;;-4.37;65.60
57847;BME280;43675;50.030;21.952;2023-02-10T07:00:17;100414.05;;;-4.36;65.53
57847;BME280;43675;50.030;21.952;2023-02-10T07:02:44;100417.09;;;-4.34;65.53
57847;BME280;43675;50.030;21.952;2023-02-10T07:05:11;100421.15;;;-4.31;65.44
57847;BME280;43675;50.030;21.952;2023-02-10T07:07:38;100419.73;;;-4.24;65.49
57847;BME280;43675;50.030;21.952;2023-02-10T07:10:05;100419.59;;;-4.11;65.21
57847;BME280;43675;50.030;21.952;2023-02-10T07:12:32;100416.67;;;-4.06;65.21
57847;BME280;43675;50.030;21.952;2023-02-10T07:14:59;100421.94;;;-3.99;65.06
57847;BME280;43675;50.030;21.952;2023-02-10T07:17:26;100419.95;;;-3.92;65.01
57847;BME280;43675;50.030;21.952;2023-02-10T07:19:52;100422.89;;;-3.85;65.00
57847;BME280;43675;50.030;21.952;2023-02-10T07:22:19;100423.42;;;-3.78;64.73
57847;BME280;43675;50.030;21.952;2023-02-10T07:24:46;100421.77;;;-3.70;64.77
57847;BME280;43675;50.030;21.952;2023-02-10T07:27:12;100414.50;;;-3.62;64.50
57847;BME280;43675;50.030;21.952;2023-02-10T07:29:39;100421.12;;;-3.55;64.36
57847;BME280;43675;50.030;21.952;2023-02-10T07:32:05;100421.03;;;-3.50;64.29
57847;BME280;43675;50.030;21.952;2023-02-10T07:34:32;100429.96;;;-3.44;64.33
57847;BME280;43675;50.030;21.952;2023-02-10T07:36:58;100430.88;;;-3.39;64.29
57847;BME280;43675;50.030;21.952;2023-02-10T07:39:26;100423.00;;;-3.32;64.14
57847;BME280;43675;50.030;21.952;2023-02-10T07:41:53;100421.05;;;-3.25;63.84
57847;BME280;43675;50.030;21.952;2023-02-10T07:44:19;100424.52;;;-3.18;63.75
57847;BME280;43675;50.030;21.952;2023-02-10T07:46:47;100427.11;;;-3.12;63.71
57847;BME280;43675;50.030;21.952;2023-02-10T07:49:13;100434.70;;;-3.07;63.55
57847;BME280;43675;50.030;21.952;2023-02-10T07:51:40;100436.80;;;-3.01;63.44
57847;BME280;43675;50.030;21.952;2023-02-10T07:54:06;100438.20;;;-2.94;63.32
57847;BME280;43675;50.030;21.952;2023-02-10T07:56:33;100441.05;;;-2.89;63.05
57847;BME280;43675;50.030;21.952;2023-02-10T07:59:00;100437.35;;;-2.82;62.97
57847;BME280;43675;50.030;21.952;2023-02-10T08:01:27;100435.93;;;-2.76;62.93
57847;BME280;43675;50.030;21.952;2023-02-10T08:03:53;100438.61;;;-2.71;62.74
57847;BME280;43675;50.030;21.952;2023-02-10T08:06:21;100435.48;;;-2.65;62.83
57847;BME280;43675;50.030;21.952;2023-02-10T08:08:48;100438.76;;;-2.59;62.72
57847;BME280;43675;50.030;21.952;2023-02-10T08:11:16;100442.38;;;-2.49;62.89
57847;BME280;43675;50.030;21.952;2023-02-10T08:13:43;100444.77;;;-2.42;62.42
57847;BME280;43675;50.030;21.952;2023-02-10T08:16:10;100443.02;;;-2.32;62.53
57847;BME280;43675;50.030;21.952;2023-02-10T08:18:37;100446.56;;;-2.24;62.59
57847;BME280;43675;50.030;21.952;2023-02-10T08:21:04;100449.88;;;-2.16;62.27
57847;BME280;43675;50.030;21.952;2023-02-10T08:23:31;100442.52;;;-2.07;62.19
57847;BME280;43675;50.030;21.952;2023-02-10T08:26:01;100444.00;;;-2.00;61.99
57847;BME280;43675;50.030;21.952;2023-02-10T08:28:28;100441.19;;;-1.91;61.81
57847;BME280;43675;50.030;21.952;2023-02-10T08:30:58;100450.17;;;-1.83;61.75
57847;BME280;43675;50.030;21.952;2023-02-10T08:33:25;100452.11;;;-1.74;61.56
57847;BME280;43675;50.030;21.952;2023-02-10T08:35:52;100453.94;;;-1.64;61.29
57847;BME280;43675;50.030;21.952;2023-02-10T08:38:19;100459.81;;;-1.57;61.26
57847;BME280;43675;50.030;21.952;2023-02-10T08:40:53;100455.37;;;-1.51;61.06
57847;BME280;43675;50.030;21.952;2023-02-10T08:43:20;100450.50;;;-1.43;60.84
57847;BME280;43675;50.030;21.952;2023-02-10T08:45:47;100456.89;;;-1.36;60.59
57847;BME280;43675;50.030;21.952;2023-02-10T08:48:13;100451.48;;;-1.31;60.73
57847;BME280;43675;50.030;21.952;2023-02-10T08:50:40;100447.77;;;-1.25;60.44
57847;BME280;43675;50.030;21.952;2023-02-10T08:53:06;100442.11;;;-1.21;60.17
57847;BME280;43675;50.030;21.952;2023-02-10T08:55:33;100446.17;;;-1.17;60.07
57847;BME280;43675;50.030;21.952;2023-02-10T08:58:00;100445.67;;;-1.12;59.94
57847;BME280;43675;50.030;21.952;2023-02-10T09:00:26;100454.86;;;-1.06;59.88
57847;BME280;43675;50.030;21.952;2023-02-10T09:02:53;100459.13;;;-1.02;59.77
57847;BME280;43675;50.030;21.952;2023-02-10T09:05:20;100459.52;;;-0.98;59.75
57847;BME280;43675;50.030;21.952;2023-02-10T09:07:47;100460.59;;;-0.92;59.49
57847;BME280;43675;50.030;21.952;2023-02-10T09:10:15;100464.19;;;-0.85;59.46
57847;BME280;43675;50.030;21.952;2023-02-10T09:12:42;100463.92;;;-0.76;59.31
57847;BME280;43675;50.030;21.952;2023-02-10T09:15:09;100468.21;;;-0.66;58.94
57847;BME280;43675;50.030;21.952;2023-02-10T09:17:36;100461.83;;;-0.55;58.90
57847;BME280;43675;50.030;21.952;2023-02-10T09:20:03;100456.52;;;-0.44;58.87
57847;BME280;43675;50.030;21.952;2023-02-10T09:22:30;100454.89;;;-0.32;58.61
57847;BME280;43675;50.030;21.952;2023-02-10T09:24:56;100462.02;;;-0.21;58.21
57847;BME280;43675;50.030;21.952;2023-02-10T09:27:23;100463.12;;;-0.09;58.37
57847;BME280;43675;50.030;21.952;2023-02-10T09:29:50;100465.92;;;0.04;58.08
57847;BME280;43675;50.030;21.952;2023-02-10T09:32:16;100464.53;;;0.17;57.73
57847;BME280;43675;50.030;21.952;2023-02-10T09:34:43;100463.58;;;0.30;57.48
57847;BME280;43675;50.030;21.952;2023-02-10T09:37:09;100460.91;;;0.46;57.24
57847;BME280;43675;50.030;21.952;2023-02-10T09:39:36;100458.05;;;0.59;57.03
57847;BME280;43675;50.030;21.952;2023-02-10T09:42:09;100460.30;;;0.72;56.77
57847;BME280;43675;50.030;21.952;2023-02-10T09:44:46;100459.40;;;0.84;56.53
57847;BME280;43675;50.030;21.952;2023-02-10T09:50:20;100452.36;;;1.01;56.11
57847;BME280;43675;50.030;21.952;2023-02-10T09:55:34;100451.41;;;1.17;55.90
57847;BME280;43675;50.030;21.952;2023-02-10T09:58:48;100448.94;;;1.21;55.74
57847;BME280;43675;50.030;21.952;2023-02-10T10:04:01;100435.96;;;1.32;55.69
57847;BME280;43675;50.030;21.952;2023-02-10T10:12:22;100422.23;;;1.34;55.58
57847;BME280;43675;50.030;21.952;2023-02-10T10:14:49;100413.18;;;1.30;55.02
57847;BME280;43675;50.030;21.952;2023-02-10T10:26:41;100422.89;;;1.16;55.02
57847;BME280;43675;50.030;21.952;2023-02-10T10:31:48;100430.37;;;1.34;54.77
57847;BME280;43675;50.030;21.952;2023-02-10T10:34:18;100426.11;;;1.41;54.75
57847;BME280;43675;50.030;21.952;2023-02-10T10:36:50;100419.51;;;1.52;54.59
57847;BME280;43675;50.030;21.952;2023-02-10T10:39:35;100415.09;;;1.64;54.45
57847;BME280;43675;50.030;21.952;2023-02-10T10:42:26;100408.03;;;1.79;54.39
57847;BME280;43675;50.030;21.952;2023-02-10T10:44:59;100406.39;;;1.99;54.02
57847;BME280;43675;50.030;21.952;2023-02-10T10:47:35;100397.40;;;2.19;53.98
57847;BME280;43675;50.030;21.952;2023-02-10T10:50:03;100394.80;;;2.40;54.54
57847;BME280;43675;50.030;21.952;2023-02-10T10:52:33;100396.09;;;2.59;53.56
57847;BME280;43675;50.030;21.952;2023-02-10T10:55:03;100395.64;;;2.76;53.30
57847;BME280;43675;50.030;21.952;2023-02-10T10:57:32;100392.95;;;2.92;52.95
57847;BME280;43675;50.030;21.952;2023-02-10T11:00:27;100388.91;;;3.02;52.19
57847;BME280;43675;50.030;21.952;2023-02-10T11:03:04;100394.37;;;3.13;52.11
57847;BME280;43675;50.030;21.952;2023-02-10T11:05:36;100394.94;;;3.19;51.98
57847;BME280;43675;50.030;21.952;2023-02-10T11:08:05;100396.45;;;3.18;51.47
57847;BME280;43675;50.030;21.952;2023-02-10T11:12:59;100394.84;;;3.09;51.67
57847;BME280;43675;50.030;21.952;2023-02-10T11:15:39;100393.23;;;3.08;51.72
57847;BME280;43675;50.030;21.952;2023-02-10T11:18:16;100393.40;;;3.10;51.66
57847;BME280;43675;50.030;21.952;2023-02-10T11:21:02;100393.36;;;3.17;51.72
57847;BME280;43675;50.030;21.952;2023-02-10T11:23:29;100387.48;;;3.28;51.73
57847;BME280;43675;50.030;21.952;2023-02-10T11:26:04;100386.54;;;3.41;51.75
57847;BME280;43675;50.030;21.952;2023-02-10T11:28:33;100386.58;;;3.56;51.62
57847;BME280;43675;50.030;21.952;2023-02-10T11:31:03;100384.02;;;3.71;51.60
57847;BME280;43675;50.030;21.952;2023-02-10T11:33:34;100383.30;;;3.92;51.30
57847;BME280;43675;50.030;21.952;2023-02-10T11:36:05;100389.73;;;4.14;50.86
57847;BME280;43675;50.030;21.952;2023-02-10T11:38:34;100390.42;;;4.32;50.74
57847;BME280;43675;50.030;21.952;2023-02-10T11:41:04;100390.05;;;4.38;50.01
57847;BME280;43675;50.030;21.952;2023-02-10T11:43:35;100379.75;;;4.37;49.72
57847;BME280;43675;50.030;21.952;2023-02-10T11:46:05;100372.85;;;4.34;49.78
57847;BME280;43675;50.030;21.952;2023-02-10T11:48:32;100375.00;;;4.35;49.83
57847;BME280;43675;50.030;21.952;2023-02-10T11:51:15;100379.20;;;4.35;49.87
57847;BME280;43675;50.030;21.952;2023-02-10T11:53:43;100376.79;;;4.36;50.04
57847;BME280;43675;50.030;21.952;2023-02-10T12:01:22;100379.73;;;4.33;49.37
57847;BME280;43675;50.030;21.952;2023-02-10T12:04:02;100377.44;;;4.33;49.42
57847;BME280;43675;50.030;21.952;2023-02-10T12:06:42;100373.26;;;4.38;49.48
57847;BME280;43675;50.030;21.952;2023-02-10T12:12:15;100369.21;;;4.63;49.52
57847;BME280;43675;50.030;21.952;2023-02-10T12:18:00;100364.96;;;5.10;49.31
57847;BME280;43675;50.030;21.952;2023-02-10T12:21:01;100363.52;;;5.34;48.98
57847;BME280;43675;50.030;21.952;2023-02-10T12:34:14;100354.90;;;5.94;47.88
57847;BME280;43675;50.030;21.952;2023-02-10T12:36:48;100360.17;;;5.95;48.24
57847;BME280;43675;50.030;21.952;2023-02-10T12:39:31;100359.76;;;5.94;48.00
57847;BME280;43675;50.030;21.952;2023-02-10T12:52:59;100353.46;;;5.45;47.95
57847;BME280;43675;50.030;21.952;2023-02-10T12:55:53;100355.27;;;5.43;48.01
57847;BME280;43675;50.030;21.952;2023-02-10T12:58:43;100355.86;;;5.38;47.88
57847;BME280;43675;50.030;21.952;2023-02-10T13:03:41;100355.23;;;5.26;47.49
57847;BME280;43675;50.030;21.952;2023-02-10T13:08:58;100352.81;;;5.11;47.63
57847;BME280;43675;50.030;21.952;2023-02-10T13:11:41;100354.10;;;5.05;47.65
57847;BME280;43675;50.030;21.952;2023-02-10T13:14:23;100354.52;;;4.97;47.62
57847;BME280;43675;50.030;21.952;2023-02-10T13:16:55;100353.74;;;4.90;47.53
57847;BME280;43675;50.030;21.952;2023-02-10T13:19:29;100358.70;;;4.84;47.52
57847;BME280;43675;50.030;21.952;2023-02-10T13:22:02;100361.66;;;4.74;47.71
57847;BME280;43675;50.030;21.952;2023-02-10T13:24:39;100364.90;;;4.62;47.65
57847;BME280;43675;50.030;21.952;2023-02-10T13:35:01;100376.35;;;4.11;48.21
57847;BME280;43675;50.030;21.952;2023-02-10T13:37:38;100373.16;;;3.99;48.34
57847;BME280;43675;50.030;21.952;2023-02-10T13:40:27;100379.86;;;3.89;48.58
57847;BME280;43675;50.030;21.952;2023-02-10T13:42:58;100382.02;;;3.80;48.73
57847;BME280;43675;50.030;21.952;2023-02-10T13:45:27;100374.15;;;3.74;48.70
57847;BME280;43675;50.030;21.952;2023-02-10T13:47:58;100374.30;;;3.66;48.92
57847;BME280;43675;50.030;21.952;2023-02-10T13:50:29;100374.17;;;3.60;48.73
57847;BME280;43675;50.030;21.952;2023-02-10T13:53:05;100365.39;;;3.55;48.80
57847;BME280;43675;50.030;21.952;2023-02-10T14:00:51;100386.95;;;3.30;49.12
57847;BME280;43675;50.030;21.952;2023-02-10T14:03:38;100385.59;;;3.21;49.29
57847;BME280;43675;50.030;21.952;2023-02-10T14:06:07;100384.23;;;3.16;49.51
57847;BME280;43675;50.030;21.952;2023-02-10T14:08:44;100379.89;;;3.15;49.83
57847;BME280;43675;50.030;21.952;2023-02-10T14:14:01;100389.67;;;3.08;49.83
57847;BME280;43675;50.030;21.952;2023-02-10T14:16:31;100389.21;;;3.05;50.05
57847;BME280;43675;50.030;21.952;2023-02-10T14:19:04;100385.56;;;3.06;49.88
57847;BME280;43675;50.030;21.952;2023-02-10T14:21:43;100387.11;;;3.04;49.97
57847;BME280;43675;50.030;21.952;2023-02-10T14:24:22;100387.01;;;3.02;50.23
57847;BME280;43675;50.030;21.952;2023-02-10T14:26:51;100391.57;;;2.98;50.48
57847;BME280;43675;50.030;21.952;2023-02-10T14:29:19;100393.20;;;2.91;50.30
57847;BME280;43675;50.030;21.952;2023-02-10T14:31:57;100389.96;;;2.83;50.42
57847;BME280;43675;50.030;21.952;2023-02-10T14:34:30;100390.39;;;2.75;50.61
57847;BME280;43675;50.030;21.952;2023-02-10T14:37:02;100391.22;;;2.69;50.80
57847;BME280;43675;50.030;21.952;2023-02-10T14:39:30;100396.41;;;2.62;50.85